Lamont, Wyoming
Current Conditions -  °F | °C
As of 3:15 AM on Tuesday 27 Jan 2015 (Local Time) from KFWZ Reporting Station
Clear Clear  
Wind Chill: 37°   Ceiling: Unl
Heat Index: 43°   Visibility: 10mi
Dew Point: 14°   Wind: 9mph
Humidity: 31%   Direction: 250°WSW
Pressure: 30.23"   Gusts: NA
Location:  42.1657°N, 107.989°W
Report Text: KFWZ 271015Z AUTO 25008KT 10SM CLR 06/M10 A3023 RMK AO2
Loading
Personal Weather Stations






























Interactive Weather Map New forecast layout! Learn more

10-Day Weather Forecast

Advertisements
Track Severe Weather on mobile